Time;durP1;ratioP1;P1;durP2;ratioP2;P2;SDS_P1;SDS_P2;PMS_P1;PMS_P2;Temp;Humidity;BMP_temperature;BMP_pressure;BME280_temperature;BME280_humidity;BME280_pressure;Samples;Min_cycle;Max_cycle;Signal;HPM_P1;HPM_P2
2023/03/01 00:01:22;;;;;;;31.97;28.97;;;-0.60;99.90;;;;;;5022915;28;20053;-73
2023/03/01 00:03:48;;;;;;;36.60;33.17;;;-0.60;99.90;;;;;;5015148;28;20053;-72
2023/03/01 00:06:15;;;;;;;34.90;31.37;;;-0.70;99.90;;;;;;5015842;28;20577;-72
2023/03/01 00:08:41;;;;;;;34.20;31.00;;;-0.60;99.90;;;;;;5032618;28;20129;-73
2023/03/01 00:11:14;;;;;;;33.37;30.17;;;-0.60;99.90;;;;;;5013516;28;20136;-72
2023/03/01 00:13:41;;;;;;;33.03;29.73;;;-0.60;99.90;;;;;;5026090;28;20137;-72
2023/03/01 00:16:11;;;;;;;35.67;32.37;;;-0.60;99.90;;;;;;5016291;28;20119;-72
2023/03/01 00:18:37;;;;;;;36.25;32.65;;;-0.60;99.90;;;;;;4999685;28;20077;-72
2023/03/01 00:21:03;;;;;;;34.87;31.37;;;-0.60;99.90;;;;;;5018841;28;20088;-72
2023/03/01 00:23:29;;;;;;;35.50;32.03;;;-0.70;99.90;;;;;;5008383;28;20515;-72
2023/03/01 00:25:55;;;;;;;38.47;34.97;;;-0.70;99.90;;;;;;4990783;28;20042;-73
2023/03/01 00:28:21;;;;;;;35.00;31.40;;;-0.70;99.90;;;;;;5013139;28;20050;-72
2023/03/01 00:30:50;;;;;;;35.70;32.23;;;-0.70;99.90;;;;;;4987859;28;20045;-73
2023/03/01 00:33:15;;;;;;;40.30;36.23;;;-0.70;99.90;;;;;;4992066;28;20900;-73
2023/03/01 00:35:41;;;;;;;42.73;38.40;;;-0.70;99.90;;;;;;4992669;28;20074;-73
2023/03/01 00:38:08;;;;;;;39.03;35.07;;;-0.70;99.90;;;;;;4992711;28;20044;-73
2023/03/01 00:40:35;;;;;;;47.03;41.93;;;-0.70;99.90;;;;;;5004509;28;20566;-73
2023/03/01 00:43:01;;;;;;;54.10;44.10;;;-0.70;99.90;;;;;;5008821;28;20496;-73
2023/03/01 00:45:27;;;;;;;65.57;49.60;;;-0.70;99.90;;;;;;5021306;28;20052;-73
2023/03/01 00:47:54;;;;;;;194.70;53.67;;;-0.70;99.90;;;;;;5010597;28;20049;-73
2023/03/01 00:50:20;;;;;;;228.60;54.33;;;-0.70;99.90;;;;;;4981841;28;20120;-71
2023/03/01 00:52:46;;;;;;;110.27;54.60;;;-0.60;99.90;;;;;;5003467;28;20088;-71
2023/03/01 00:55:12;;;;;;;266.47;64.63;;;-0.60;99.90;;;;;;5000564;28;20361;-72
2023/03/01 00:57:38;;;;;;;325.07;71.00;;;-0.60;99.90;;;;;;5008978;28;20042;-72
2023/03/01 01:00:06;;;;;;;267.00;64.63;;;-0.50;99.90;;;;;;5019058;28;20046;-73
2023/03/01 01:02:33;;;;;;;248.37;66.53;;;-0.60;99.90;;;;;;5012433;28;20054;-71
2023/03/01 01:04:59;;;;;;;264.77;69.07;;;-0.60;99.90;;;;;;5022475;28;20099;-72
2023/03/01 01:07:25;;;;;;;359.07;80.07;;;-0.70;99.90;;;;;;4992644;28;20073;-72
2023/03/01 01:09:51;;;;;;;230.33;65.17;;;-0.60;99.90;;;;;;5022004;28;20083;-71
2023/03/01 01:12:17;;;;;;;258.93;68.87;;;-0.60;99.90;;;;;;5013955;28;20057;-72
2023/03/01 01:14:43;;;;;;;281.10;65.73;;;-0.60;99.90;;;;;;5021372;28;20068;-73
2023/03/01 01:17:14;;;;;;;355.87;73.63;;;-0.60;99.90;;;;;;5019934;28;20396;-75
2023/03/01 01:19:40;;;;;;;426.43;85.77;;;-0.60;99.90;;;;;;5002915;28;20111;-73
2023/03/01 01:22:06;;;;;;;306.97;70.10;;;-0.60;99.90;;;;;;4994620;28;20049;-73
2023/03/01 01:24:32;;;;;;;472.43;87.37;;;-0.60;99.90;;;;;;5020796;28;20034;-74
2023/03/01 01:26:58;;;;;;;341.63;66.40;;;-0.60;99.90;;;;;;5026111;28;20377;-73
2023/03/01 01:29:24;;;;;;;389.30;84.00;;;-0.60;99.90;;;;;;5024160;28;20048;-72
2023/03/01 01:31:50;;;;;;;332.07;79.33;;;-0.60;99.90;;;;;;4991063;28;20696;-72
2023/03/01 01:34:19;;;;;;;371.47;79.60;;;-0.60;99.90;;;;;;4986359;28;20537;-72
2023/03/01 01:36:49;;;;;;;320.53;76.00;;;-0.60;99.90;;;;;;5019203;28;20049;-72
2023/03/01 01:39:15;;;;;;;321.23;81.85;;;-0.60;99.90;;;;;;5013870;28;20491;-72
2023/03/01 01:41:47;;;;;;;217.27;60.20;;;-0.60;99.90;;;;;;5023038;28;20053;-72
2023/03/01 01:44:28;;;;;;;171.10;57.37;;;-0.50;99.90;;;;;;5003733;28;20064;-73
2023/03/01 01:47:00;;;;;;;400.90;82.17;;;-0.50;99.90;;;;;;4995339;28;20099;-72
2023/03/01 01:50:03;;;;;;;310.37;68.80;;;-0.60;99.90;;;;;;5002910;28;20057;-73
2023/03/01 01:52:35;;;;;;;182.90;56.10;;;-0.60;99.90;;;;;;4998896;28;20058;-73
2023/03/01 01:55:16;;;;;;;202.50;58.77;;;-0.60;99.90;;;;;;5022166;28;20132;-73
2023/03/01 01:57:45;;;;;;;230.47;58.57;;;-0.70;99.90;;;;;;5014279;28;20062;-73
2023/03/01 02:00:21;;;;;;;144.20;51.50;;;-0.70;99.90;;;;;;5008419;28;20030;-75
2023/03/01 02:02:51;;;;;;;238.90;65.70;;;-0.80;99.90;;;;;;5007488;28;20132;-76
2023/03/01 02:05:55;;;;;;;156.43;56.53;;;-0.80;99.90;;;;;;5019481;28;20062;-74
2023/03/01 02:08:24;;;;;;;203.40;58.30;;;-0.80;99.90;;;;;;5016274;28;20508;-74
2023/03/01 02:10:52;;;;;;;79.85;47.92;;;-0.80;99.90;;;;;;5014211;28;20041;-75
2023/03/01 02:13:18;;;;;;;93.90;51.50;;;-0.90;99.90;;;;;;5018125;28;20048;-74
2023/03/01 02:15:47;;;;;;;97.80;52.70;;;-0.90;99.90;;;;;;5029973;28;20046;-73
2023/03/01 02:18:16;;;;;;;44.43;37.87;;;-1.00;99.90;;;;;;5008850;28;20369;-73
2023/03/01 02:21:19;;;;;;;41.40;37.53;;;-1.00;99.90;;;;;;5016663;28;20173;-74
2023/03/01 02:23:45;;;;;;;40.63;36.83;;;-1.00;99.90;;;;;;5035081;28;20120;-73
2023/03/01 02:26:38;;;;;;;49.17;40.90;;;-1.10;99.90;;;;;;5002925;28;20086;-73
2023/03/01 02:29:06;;;;;;;31.70;28.90;;;-1.10;99.90;;;;;;5017068;28;20049;-73
2023/03/01 02:31:42;;;;;;;39.80;35.67;;;-1.20;99.90;;;;;;5015587;28;20053;-73
2023/03/01 02:34:11;;;;;;;33.53;30.53;;;-1.30;99.90;;;;;;5010834;28;20060;-73
2023/03/01 02:36:50;;;;;;;41.95;37.85;;;-1.30;99.90;;;;;;5013093;28;20484;-73
2023/03/01 02:39:33;;;;;;;43.87;39.53;;;-1.40;99.90;;;;;;5008242;28;20053;-72
2023/03/01 02:42:01;;;;;;;39.97;36.17;;;-1.30;99.90;;;;;;5030348;28;20088;-74
2023/03/01 02:44:27;;;;;;;37.73;34.23;;;-1.30;99.90;;;;;;5016930;28;20060;-73
2023/03/01 02:46:55;;;;;;;39.37;35.63;;;-1.30;99.90;;;;;;4987436;28;20400;-74
2023/03/01 02:49:30;;;;;;;32.83;29.80;;;-1.30;99.90;;;;;;5010868;28;20110;-74
2023/03/01 02:52:04;;;;;;;45.23;40.53;;;-1.30;99.90;;;;;;5014944;28;20080;-74
2023/03/01 02:54:39;;;;;;;32.63;29.73;;;-1.30;99.90;;;;;;5004015;28;20103;-72
2023/03/01 02:57:05;;;;;;;34.43;31.30;;;-1.40;99.90;;;;;;5023949;28;20053;-72
2023/03/01 02:59:39;;;;;;;32.17;29.37;;;-1.50;99.90;;;;;;5018604;28;20053;-73
2023/03/01 03:02:20;;;;;;;35.30;32.07;;;-1.50;99.90;;;;;;4997398;28;20053;-73
2023/03/01 03:04:46;;;;;;;46.77;42.07;;;-1.50;99.90;;;;;;5018669;28;20151;-73
2023/03/01 03:07:12;;;;;;;41.17;37.20;;;-1.60;99.90;;;;;;5015853;28;20041;-71
2023/03/01 03:09:38;;;;;;;36.37;33.07;;;-1.60;99.90;;;;;;5017366;28;20045;-74
2023/03/01 03:12:04;;;;;;;35.77;32.47;;;-1.70;99.90;;;;;;5006906;28;20491;-72
2023/03/01 03:14:34;;;;;;;34.80;31.60;;;-1.70;99.90;;;;;;5006494;28;20053;-72
2023/03/01 03:17:00;;;;;;;36.90;33.47;;;-1.70;99.90;;;;;;5008387;28;20057;-72
2023/03/01 03:19:26;;;;;;;38.63;35.03;;;-1.80;99.90;;;;;;5018985;28;20037;-72
2023/03/01 03:21:52;;;;;;;38.20;34.70;;;-1.80;99.90;;;;;;5022013;28;20096;-72
2023/03/01 03:24:18;;;;;;;39.53;35.90;;;-1.80;99.90;;;;;;5017837;28;20053;-72
2023/03/01 03:26:43;;;;;;;33.77;30.67;;;-1.80;99.90;;;;;;5005758;28;20037;-72
2023/03/01 03:29:09;;;;;;;33.90;30.90;;;-1.90;99.90;;;;;;5002468;28;20045;-73
2023/03/01 03:31:35;;;;;;;36.20;32.70;;;-1.90;99.90;;;;;;4970260;28;20128;-73
2023/03/01 03:34:01;;;;;;;30.13;27.43;;;-1.90;99.90;;;;;;5008719;28;20136;-73
2023/03/01 03:36:27;;;;;;;28.53;26.03;;;-2.00;99.90;;;;;;5007678;28;20041;-73
2023/03/01 03:38:52;;;;;;;29.93;27.23;;;-2.00;99.90;;;;;;5004935;28;20045;-73
2023/03/01 03:41:19;;;;;;;28.80;26.30;;;-2.00;99.90;;;;;;5022134;28;20049;-73
2023/03/01 03:43:45;;;;;;;26.37;24.07;;;-2.10;99.90;;;;;;5001345;28;20535;-72
2023/03/01 03:46:12;;;;;;;29.70;27.00;;;-2.10;99.90;;;;;;5004491;28;20042;-73
2023/03/01 03:48:44;;;;;;;32.07;29.20;;;-2.10;99.90;;;;;;5005560;28;20053;-73
2023/03/01 03:51:11;;;;;;;31.63;28.63;;;-2.10;99.90;;;;;;5023866;28;20080;-72
2023/03/01 03:53:37;;;;;;;32.40;29.40;;;-2.00;99.90;;;;;;5010568;28;20072;-73
2023/03/01 03:56:03;;;;;;;32.97;30.00;;;-2.00;99.90;;;;;;4996393;28;20092;-72
2023/03/01 03:58:29;;;;;;;33.17;30.07;;;-2.00;99.90;;;;;;5026984;28;20045;-72
2023/03/01 04:00:58;;;;;;;33.73;30.63;;;-2.00;99.90;;;;;;5006114;28;20244;-73
2023/03/01 04:03:25;;;;;;;33.53;30.43;;;-2.00;99.90;;;;;;5014535;28;20071;-76
2023/03/01 04:05:52;;;;;;;33.13;30.23;;;-2.00;99.90;;;;;;5009088;28;20042;-75
2023/03/01 04:08:20;;;;;;;31.73;29.00;;;-2.10;99.90;;;;;;5027682;28;20451;-75
2023/03/01 04:10:49;;;;;;;30.57;27.77;;;-2.10;99.90;;;;;;5008568;28;20549;-75
2023/03/01 04:13:19;;;;;;;30.00;27.37;;;-2.10;99.90;;;;;;5027779;28;20467;-75
2023/03/01 04:15:49;;;;;;;;;;;-2.10;99.90;;;;;;5007020;28;20049;-75
2023/03/01 04:18:17;;;;;;;29.45;26.75;;;-2.10;99.90;;;;;;5022273;28;20412;-76
2023/03/01 04:20:44;;;;;;;30.60;27.83;;;-2.10;99.90;;;;;;5006798;28;20058;-75
2023/03/01 04:23:15;;;;;;;32.37;29.37;;;-2.20;99.90;;;;;;5030107;28;20753;-75
2023/03/01 04:25:58;;;;;;;28.77;26.17;;;-2.20;99.90;;;;;;5012465;28;20107;-72
2023/03/01 04:28:40;;;;;;;29.77;27.03;;;-2.20;99.90;;;;;;5030331;28;20124;-72
2023/03/01 04:31:16;;;;;;;32.00;29.10;;;-2.20;99.90;;;;;;5030805;28;20045;-72
2023/03/01 04:33:46;;;;;;;37.97;34.47;;;-2.30;99.90;;;;;;5011169;28;20053;-75
2023/03/01 04:36:13;;;;;;;29.67;27.05;;;-2.30;99.90;;;;;;5019654;28;20049;-75
2023/03/01 04:38:40;;;;;;;31.77;28.87;;;-2.30;99.90;;;;;;5014824;28;20057;-74
2023/03/01 04:41:09;;;;;;;27.90;25.50;;;-2.40;99.90;;;;;;5014523;28;20228;-74
2023/03/01 04:43:35;;;;;;;28.77;26.27;;;-2.50;99.90;;;;;;5035844;28;20617;-74
2023/03/01 04:46:03;;;;;;;33.67;30.70;;;-2.50;99.90;;;;;;5006923;28;20053;-74
2023/03/01 04:48:30;;;;;;;29.67;27.03;;;-2.50;99.90;;;;;;4994564;28;20053;-74
2023/03/01 04:50:59;;;;;;;34.97;31.77;;;-2.60;99.90;;;;;;4997915;28;20423;-74
2023/03/01 04:53:26;;;;;;;31.67;28.77;;;-2.60;99.90;;;;;;4999176;28;20621;-72
2023/03/01 04:55:56;;;;;;;31.10;28.33;;;-2.60;99.90;;;;;;5000186;28;20717;-72
2023/03/01 04:58:23;;;;;;;30.70;28.00;;;-2.50;99.90;;;;;;5012962;28;20151;-74
2023/03/01 05:00:49;;;;;;;30.33;27.53;;;-2.70;99.90;;;;;;5021731;28;20053;-72
2023/03/01 05:03:17;;;;;;;30.60;27.90;;;-2.60;99.90;;;;;;4997263;28;20080;-73
2023/03/01 05:05:45;;;;;;;29.63;27.03;;;-2.60;99.90;;;;;;5023163;28;20045;-73
2023/03/01 05:08:17;;;;;;;27.90;25.50;;;-2.60;99.90;;;;;;5023404;28;20049;-72
2023/03/01 05:10:49;;;;;;;28.43;25.93;;;-2.70;99.90;;;;;;5007352;28;20061;-74
2023/03/01 05:13:20;;;;;;;26.77;24.47;;;-2.60;99.90;;;;;;5004719;28;20049;-74
2023/03/01 05:16:01;;;;;;;27.37;24.97;;;-2.70;99.90;;;;;;5002078;28;20192;-75
2023/03/01 05:18:30;;;;;;;29.67;26.98;;;-2.70;99.90;;;;;;5018576;28;20064;-72
2023/03/01 05:21:11;;;;;;;26.00;23.70;;;-2.70;99.90;;;;;;5028933;28;20045;-73
2023/03/01 05:23:38;;;;;;;24.50;22.30;;;-2.80;99.90;;;;;;5027828;28;20058;-74
2023/03/01 05:26:05;;;;;;;26.13;23.83;;;-2.80;99.90;;;;;;5000405;28;20057;-73
2023/03/01 05:28:31;;;;;;;28.17;25.73;;;-2.80;99.90;;;;;;5009504;28;20382;-73
2023/03/01 05:30:58;;;;;;;27.50;25.10;;;-2.80;99.90;;;;;;5020696;28;20068;-73
2023/03/01 05:33:27;;;;;;;28.87;26.27;;;-2.80;99.90;;;;;;5002965;28;20139;-76
2023/03/01 05:35:53;;;;;;;26.48;24.10;;;-2.80;99.90;;;;;;4998588;28;20170;-75
2023/03/01 05:38:20;;;;;;;25.53;23.33;;;-2.90;99.90;;;;;;4986607;28;20113;-72
2023/03/01 05:40:47;;;;;;;27.30;24.80;;;-2.90;99.90;;;;;;5023473;28;20093;-73
2023/03/01 05:43:15;;;;;;;28.50;25.90;;;-2.90;99.90;;;;;;5014626;28;20183;-73
2023/03/01 05:45:42;;;;;;;27.40;24.97;;;-2.90;99.90;;;;;;5031735;28;20042;-73
2023/03/01 05:48:10;;;;;;;25.27;22.97;;;-3.00;99.90;;;;;;5005536;28;20559;-73
2023/03/01 05:50:41;;;;;;;26.53;24.13;;;-3.10;99.90;;;;;;4999732;28;20234;-73
2023/03/01 05:53:14;;;;;;;27.40;24.97;;;-3.00;99.90;;;;;;5015155;28;20061;-73
2023/03/01 05:55:41;;;;;;;27.40;24.97;;;-3.00;99.90;;;;;;4996925;28;20124;-73
2023/03/01 05:58:11;;;;;;;26.33;23.93;;;-3.00;99.90;;;;;;5025638;28;20492;-73
2023/03/01 06:00:37;;;;;;;25.47;23.17;;;-3.00;99.90;;;;;;5024245;28;20061;-72
2023/03/01 06:03:03;;;;;;;25.87;23.57;;;-3.00;99.90;;;;;;4999073;28;20072;-74
2023/03/01 06:05:30;;;;;;;25.60;23.30;;;-3.00;99.90;;;;;;5005326;28;20072;-74
2023/03/01 06:07:59;;;;;;;25.20;22.93;;;-3.00;99.90;;;;;;5026346;28;20049;-74
2023/03/01 06:10:25;;;;;;;24.10;21.97;;;-3.00;99.90;;;;;;5009422;28;20572;-73
2023/03/01 06:12:52;;;;;;;24.40;22.30;;;-2.90;99.90;;;;;;5003342;28;20500;-73
2023/03/01 06:15:17;;;;;;;24.40;22.17;;;-3.00;99.90;;;;;;5005589;28;20059;-73
2023/03/01 06:17:46;;;;;;;25.40;23.07;;;-3.00;99.90;;;;;;5023691;28;20428;-75
2023/03/01 06:20:18;;;;;;;26.00;23.50;;;-3.00;99.90;;;;;;5004683;28;20116;-74
2023/03/01 06:22:44;;;;;;;24.27;22.07;;;-3.00;99.90;;;;;;4999879;28;20518;-74
2023/03/01 06:25:12;;;;;;;25.77;23.47;;;-3.00;99.90;;;;;;5028919;28;20044;-75
2023/03/01 06:27:38;;;;;;;24.60;22.33;;;-3.00;99.90;;;;;;5001772;28;20417;-73
2023/03/01 06:30:05;;;;;;;26.10;23.57;;;-3.00;99.90;;;;;;5017236;28;20034;-73
2023/03/01 06:32:31;;;;;;;26.17;23.63;;;-3.00;99.90;;;;;;4998226;28;20548;-73
2023/03/01 06:34:58;;;;;;;27.27;24.77;;;-3.00;99.90;;;;;;5016099;28;20261;-73
2023/03/01 06:37:25;;;;;;;30.87;28.07;;;-3.00;99.90;;;;;;4987452;28;20487;-73
2023/03/01 06:39:51;;;;;;;29.77;26.77;;;-3.00;99.90;;;;;;5017552;28;20330;-73
2023/03/01 06:42:16;;;;;;;31.93;28.83;;;-2.90;99.90;;;;;;5014017;28;20057;-73
2023/03/01 06:44:46;;;;;;;33.67;30.20;;;-2.80;99.90;;;;;;5017637;28;20064;-73
2023/03/01 06:47:12;;;;;;;34.20;30.97;;;-2.70;99.90;;;;;;4998126;28;20053;-74
2023/03/01 06:49:37;;;;;;;32.70;29.50;;;-2.60;99.90;;;;;;5017143;28;20049;-75
2023/03/01 06:52:03;;;;;;;32.50;29.40;;;-2.60;99.90;;;;;;4988469;28;20042;-74
2023/03/01 06:54:29;;;;;;;35.47;31.97;;;-2.50;99.90;;;;;;5015062;28;20103;-74
2023/03/01 06:56:55;;;;;;;35.83;32.30;;;-2.40;99.90;;;;;;5019835;28;20056;-73
2023/03/01 06:59:21;;;;;;;35.80;32.30;;;-2.40;99.90;;;;;;5006821;28;20048;-73
2023/03/01 07:01:46;;;;;;;37.23;33.63;;;-2.30;99.90;;;;;;5020241;28;20255;-73
2023/03/01 07:04:13;;;;;;;37.60;33.90;;;-2.20;99.90;;;;;;5014571;28;20042;-73
2023/03/01 07:06:39;;;;;;;38.73;34.73;;;-2.10;99.90;;;;;;5009182;28;20056;-72
2023/03/01 07:09:05;;;;;;;37.50;33.77;;;-2.10;99.90;;;;;;5017263;28;20527;-72
2023/03/01 07:11:31;;;;;;;40.20;36.00;;;-2.00;99.90;;;;;;5021926;28;20121;-72
2023/03/01 07:13:58;;;;;;;38.80;34.77;;;-2.00;99.90;;;;;;5023246;28;20061;-72
2023/03/01 07:16:24;;;;;;;40.20;36.10;;;-2.00;99.90;;;;;;5005827;28;20064;-73
2023/03/01 07:18:49;;;;;;;38.00;34.13;;;-1.90;99.90;;;;;;5016377;28;20120;-72
2023/03/01 07:21:16;;;;;;;36.47;32.97;;;-2.00;99.90;;;;;;5022013;28;20049;-72
2023/03/01 07:23:42;;;;;;;35.70;32.30;;;-1.80;99.90;;;;;;5003499;28;20058;-74
2023/03/01 07:26:08;;;;;;;34.50;31.10;;;-1.70;99.90;;;;;;5002849;28;20081;-72
2023/03/01 07:28:35;;;;;;;32.70;29.60;;;-1.80;99.90;;;;;;5009566;28;20409;-72
2023/03/01 07:31:02;;;;;;;38.57;34.57;;;-1.70;99.90;;;;;;5004239;28;20042;-72
2023/03/01 07:33:28;;;;;;;38.87;34.90;;;-1.70;99.90;;;;;;5015922;28;20497;-72
2023/03/01 07:36:02;;;;;;;43.10;38.57;;;-1.70;99.90;;;;;;4998479;28;20111;-72
2023/03/01 07:38:29;;;;;;;36.87;33.13;;;-1.60;99.90;;;;;;5038151;28;20058;-72
2023/03/01 07:41:02;;;;;;;38.13;34.30;;;-1.50;99.90;;;;;;5022307;28;20405;-72
2023/03/01 07:43:29;;;;;;;37.40;33.67;;;-1.40;99.90;;;;;;5017801;28;20065;-73
2023/03/01 07:45:57;;;;;;;40.67;36.60;;;-1.40;99.90;;;;;;5003368;28;20050;-72
2023/03/01 07:48:26;;;;;;;40.43;36.33;;;-1.30;99.90;;;;;;4994889;28;20045;-73
2023/03/01 07:50:52;;;;;;;42.40;38.13;;;-1.10;99.90;;;;;;5021248;28;20442;-73
2023/03/01 07:53:18;;;;;;;44.97;40.23;;;-1.10;99.90;;;;;;5001648;28;20053;-73
2023/03/01 07:55:44;;;;;;;43.60;39.13;;;-1.00;99.90;;;;;;5023325;28;20054;-72
2023/03/01 07:58:09;;;;;;;43.00;38.60;;;-0.90;99.90;;;;;;4986841;28;20084;-72
2023/03/01 08:00:35;;;;;;;52.00;46.40;;;-0.90;99.90;;;;;;5002513;28;20053;-73
2023/03/01 08:03:01;;;;;;;44.50;40.10;;;-0.80;99.90;;;;;;4989042;28;20058;-73
2023/03/01 08:05:28;;;;;;;43.73;39.13;;;-0.70;99.90;;;;;;5018599;28;20049;-73
2023/03/01 08:07:57;;;;;;;55.17;46.77;;;-0.70;99.90;;;;;;5014547;28;20052;-72
2023/03/01 08:10:23;;;;;;;55.87;49.27;;;-0.60;99.90;;;;;;5015181;28;20064;-72
2023/03/01 08:12:51;;;;;;;51.50;46.03;;;-0.50;99.90;;;;;;5014078;28;20054;-73
2023/03/01 08:15:18;;;;;;;59.80;53.30;;;-0.30;99.90;;;;;;5001243;28;20057;-73
2023/03/01 08:17:49;;;;;;;52.70;47.28;;;-0.10;99.90;;;;;;5007338;28;20056;-73
2023/03/01 08:20:16;;;;;;;52.80;47.33;;;0.10;99.90;;;;;;5007329;28;20402;-72
2023/03/01 08:22:42;;;;;;;55.20;49.33;;;0.40;99.90;;;;;;5016060;28;20136;-72
2023/03/01 08:25:08;;;;;;;56.03;50.13;;;0.70;99.90;;;;;;4991506;28;20492;-72
2023/03/01 08:27:34;;;;;;;45.27;40.63;;;0.90;99.90;;;;;;4989161;28;20544;-72
2023/03/01 08:30:00;;;;;;;51.47;45.87;;;1.20;99.90;;;;;;5004562;28;20292;-72
2023/03/01 08:32:26;;;;;;;45.23;40.63;;;1.40;99.90;;;;;;4999760;28;20087;-72
2023/03/01 08:34:51;;;;;;;42.83;38.53;;;1.60;99.90;;;;;;5018203;28;20064;-72
2023/03/01 08:37:17;;;;;;;46.03;41.20;;;1.70;99.90;;;;;;5020123;28;20671;-71
2023/03/01 08:39:43;;;;;;;47.43;42.43;;;2.00;99.90;;;;;;5007163;28;20053;-74
2023/03/01 08:42:09;;;;;;;47.07;42.10;;;2.30;99.90;;;;;;5011033;28;20075;-74
2023/03/01 08:44:34;;;;;;;40.93;36.73;;;2.50;99.90;;;;;;5004308;28;20107;-74
2023/03/01 08:47:02;;;;;;;39.80;35.80;;;2.70;99.90;;;;;;5004606;28;20087;-74
2023/03/01 08:49:28;;;;;;;41.03;36.40;;;2.80;99.90;;;;;;5003149;28;20060;-76
2023/03/01 08:51:55;;;;;;;43.13;38.60;;;3.10;99.90;;;;;;5018792;28;20096;-76
2023/03/01 08:54:22;;;;;;;48.70;43.60;;;3.30;99.90;;;;;;5005111;28;20041;-76
2023/03/01 08:56:48;;;;;;;48.50;43.23;;;3.50;99.90;;;;;;5036916;28;20049;-76
2023/03/01 08:59:17;;;;;;;45.88;40.88;;;3.70;99.90;;;;;;5010026;28;20124;-76
2023/03/01 09:01:44;;;;;;;41.83;37.30;;;3.90;99.90;;;;;;5014009;28;20519;-76
2023/03/01 09:04:11;;;;;;;43.93;39.23;;;4.00;99.90;;;;;;4992435;28;20049;-74
2023/03/01 09:06:37;;;;;;;43.35;38.80;;;4.00;99.90;;;;;;5018023;28;20090;-74
2023/03/01 09:09:05;;;;;;;42.22;37.83;;;4.20;99.90;;;;;;5005727;28;20187;-74
2023/03/01 09:11:31;;;;;;;42.13;37.60;;;4.20;99.90;;;;;;5001408;28;20851;-71
2023/03/01 09:13:57;;;;;;;40.33;35.97;;;4.20;99.90;;;;;;5009380;28;20045;-72
2023/03/01 09:16:23;;;;;;;43.40;38.80;;;4.20;99.90;;;;;;4996821;28;20328;-72
2023/03/01 09:18:53;;;;;;;42.15;37.75;;;4.20;99.90;;;;;;5004433;28;20053;-72
2023/03/01 09:21:22;;;;;;;42.85;38.03;;;4.20;99.90;;;;;;5007673;28;20089;-72
2023/03/01 09:23:48;;;;;;;41.50;37.25;;;4.20;99.90;;;;;;4988256;28;20098;-72
2023/03/01 09:26:21;;;;;;;40.80;36.63;;;4.10;99.90;;;;;;5012733;28;20084;-72
2023/03/01 09:28:51;;;;;;;41.25;36.92;;;4.10;99.90;;;;;;4996020;28;20368;-74
2023/03/01 09:31:19;;;;;;;41.95;37.38;;;4.20;99.90;;;;;;5015754;28;20234;-73
2023/03/01 09:33:51;;;;;;;42.08;37.45;;;4.20;99.90;;;;;;5007449;28;20056;-73
2023/03/01 09:36:20;;;;;;;39.45;35.30;;;4.20;99.90;;;;;;5015228;28;20527;-73
2023/03/01 09:38:47;;;;;;;41.70;37.55;;;4.20;99.90;;;;;;5012114;28;20059;-73
2023/03/01 09:41:42;;;;;;;37.65;33.83;;;4.20;99.90;;;;;;4990951;28;20046;-74
2023/03/01 09:44:26;;;;;;;45.00;40.30;;;4.30;99.90;;;;;;5009676;28;20145;-73
2023/03/01 09:46:52;;;;;;;40.80;36.50;;;4.30;99.90;;;;;;5013487;28;20138;-73
2023/03/01 09:49:30;;;;;;;37.50;33.53;;;4.30;99.90;;;;;;4986231;28;20125;-73
2023/03/01 09:52:16;;;;;;;36.28;32.38;;;4.40;99.90;;;;;;5009734;28;20046;-73
2023/03/01 09:54:42;;;;;;;33.90;30.10;;;4.50;99.90;;;;;;5002175;28;20116;-73
2023/03/01 09:57:36;;;;;;;30.80;27.42;;;4.50;99.90;;;;;;5001186;28;20045;-72
2023/03/01 10:00:22;;;;;;;32.70;29.30;;;4.60;99.90;;;;;;5016203;28;20041;-73
2023/03/01 10:03:16;;;;;;;29.17;26.17;;;4.70;99.90;;;;;;5014035;28;20049;-72
2023/03/01 10:05:57;;;;;;;25.80;23.10;;;4.80;99.90;;;;;;5008659;28;20046;-75
2023/03/01 10:08:30;;;;;;;25.45;22.70;;;4.80;99.90;;;;;;5003823;28;20515;-75
2023/03/01 10:10:57;;;;;;;23.27;20.77;;;4.90;99.90;;;;;;5008670;28;20077;-72
2023/03/01 10:13:49;;;;;;;22.90;19.08;;;4.90;99.90;;;;;;5012062;28;21222;-72
2023/03/01 10:16:27;;;;;;;23.02;20.17;;;5.00;99.90;;;;;;4987297;28;20432;-72
2023/03/01 10:18:59;;;;;;;22.73;20.27;;;5.10;99.90;;;;;;5017771;28;20068;-72
2023/03/01 10:21:28;;;;;;;21.42;17.02;;;5.20;99.90;;;;;;5013045;28;20054;-73
2023/03/01 10:24:08;;;;;;;20.10;18.00;;;5.20;99.90;;;;;;5001957;28;20041;-72
2023/03/01 10:26:47;;;;;;;17.20;15.05;;;5.30;99.90;;;;;;4996360;28;20099;-72
2023/03/01 10:29:13;;;;;;;17.70;14.68;;;5.40;99.90;;;;;;5019266;28;20045;-73
2023/03/01 10:31:52;;;;;;;18.00;15.65;;;5.40;99.90;;;;;;5000161;28;20045;-73
2023/03/01 10:34:22;;;;;;;16.48;14.60;;;5.40;99.90;;;;;;5009434;28;20500;-72
2023/03/01 10:36:50;;;;;;;14.13;12.63;;;5.50;99.90;;;;;;5007957;28;20073;-72
2023/03/01 10:39:22;;;;;;;16.92;14.93;;;5.50;99.90;;;;;;5005498;28;20072;-71
2023/03/01 10:41:57;;;;;;;12.50;10.30;;;5.50;99.90;;;;;;5020586;28;20511;-71
2023/03/01 10:44:40;;;;;;;16.15;14.45;;;5.60;99.90;;;;;;5019161;28;20077;-72
2023/03/01 10:47:24;;;;;;;19.20;16.88;;;5.70;99.90;;;;;;5012953;28;20104;-72
2023/03/01 10:50:05;;;;;;;21.35;18.92;;;5.70;99.90;;;;;;5009768;28;20061;-72
2023/03/01 10:52:40;;;;;;;21.77;18.75;;;5.80;99.90;;;;;;5006669;28;20096;-72
2023/03/01 10:55:09;;;;;;;19.15;17.00;;;5.80;99.90;;;;;;5017248;28;20586;-72
2023/03/01 10:57:38;;;;;;;19.52;17.00;;;5.80;99.90;;;;;;5003155;28;20061;-72
2023/03/01 11:00:25;;;;;;;18.30;16.33;;;5.90;99.90;;;;;;5011969;28;20045;-73
2023/03/01 11:03:03;;;;;;;16.67;14.50;;;5.90;99.90;;;;;;5012398;28;20574;-72
2023/03/01 11:05:33;;;;;;;17.05;15.25;;;5.90;99.90;;;;;;5012988;28;20097;-72
2023/03/01 11:08:02;;;;;;;18.35;16.38;;;6.00;99.90;;;;;;5003775;28;20081;-72
2023/03/01 11:10:32;;;;;;;21.37;18.57;;;6.10;99.90;;;;;;5025387;28;20046;-73
2023/03/01 11:13:15;;;;;;;20.10;18.00;;;6.10;99.90;;;;;;5011499;28;20061;-70
2023/03/01 11:15:42;;;;;;;21.60;19.40;;;6.10;99.90;;;;;;5015363;28;20065;-73
2023/03/01 11:18:29;;;;;;;22.85;20.35;;;6.10;99.90;;;;;;5020487;28;20046;-73
2023/03/01 11:20:56;;;;;;;20.10;17.88;;;6.20;99.90;;;;;;5021377;28;20314;-73
2023/03/01 11:23:23;;;;;;;20.55;18.35;;;6.20;99.90;;;;;;5012948;28;20049;-72
2023/03/01 11:25:57;;;;;;;17.73;15.18;;;6.20;99.90;;;;;;5019471;28;20092;-72
2023/03/01 11:28:25;;;;;;;18.48;16.27;;;6.30;98.80;;;;;;5021019;28;20396;-73
2023/03/01 11:30:57;;;;;;;20.77;18.40;;;6.30;97.70;;;;;;5000600;28;20049;-72
2023/03/01 11:33:44;;;;;;;21.98;18.88;;;6.30;98.40;;;;;;5023460;28;20041;-72
2023/03/01 11:36:29;;;;;;;21.45;18.55;;;6.40;97.50;;;;;;5013391;28;20576;-72
2023/03/01 11:38:56;;;;;;;20.90;18.70;;;6.40;96.10;;;;;;5013117;28;20061;-73
2023/03/01 11:41:28;;;;;;;19.70;17.70;;;6.40;96.00;;;;;;5008380;28;20632;-73
2023/03/01 11:44:16;;;;;;;19.85;17.92;;;6.30;96.10;;;;;;5014037;28;20055;-70
2023/03/01 11:46:51;;;;;;;21.75;19.45;;;6.30;97.10;;;;;;5017939;28;20615;-72
2023/03/01 11:49:22;;;;;;;20.35;18.17;;;6.40;97.50;;;;;;5015443;28;20045;-72
2023/03/01 11:52:16;;;;;;;19.00;16.88;;;6.50;96.60;;;;;;5017633;28;20124;-72
2023/03/01 11:55:04;;;;;;;21.55;19.25;;;6.50;95.50;;;;;;5022148;28;20058;-72
2023/03/01 11:57:41;;;;;;;19.60;17.50;;;6.60;96.20;;;;;;5022404;28;20548;-72
2023/03/01 12:00:37;;;;;;;18.55;16.75;;;6.60;95.80;;;;;;5017515;28;20053;-72
2023/03/01 12:03:21;;;;;;;20.13;17.92;;;6.70;95.70;;;;;;5019151;28;20060;-73
2023/03/01 12:06:05;;;;;;;20.85;18.77;;;6.60;95.20;;;;;;5014845;28;20049;-73
2023/03/01 12:09:07;;;;;;;20.13;18.02;;;6.60;95.30;;;;;;5017594;28;20049;-72
2023/03/01 12:11:51;;;;;;;20.15;18.08;;;6.70;96.60;;;;;;4967890;28;20050;-72
2023/03/01 12:15:05;;;;;;;19.13;17.20;;;6.80;94.90;;;;;;4994667;28;20141;-72
2023/03/01 12:18:11;;;;;;;21.13;18.92;;;6.80;94.50;;;;;;5017753;28;20053;-72
2023/03/01 12:21:05;;;;;;;20.45;18.33;;;6.80;95.50;;;;;;5014722;28;20751;-72
2023/03/01 12:24:12;;;;;;;17.85;15.90;;;6.80;95.70;;;;;;5008047;28;20052;-71
2023/03/01 12:27:02;;;;;;;20.30;18.00;;;7.00;94.50;;;;;;5015729;28;20037;-73
2023/03/01 12:29:34;;;;;;;20.77;18.65;;;7.00;95.00;;;;;;5025619;28;20455;-72
2023/03/01 12:32:19;;;;;;;19.95;17.23;;;7.00;95.60;;;;;;5011050;28;20180;-72
2023/03/01 12:34:49;;;;;;;21.30;19.15;;;7.00;94.00;;;;;;5015019;28;20552;-72
2023/03/01 12:37:36;;;;;;;19.42;17.42;;;7.10;96.20;;;;;;5011175;28;20048;-71
2023/03/01 12:40:35;;;;;;;17.55;15.75;;;7.20;95.70;;;;;;5017912;28;20523;-72
2023/03/01 12:43:40;;;;;;;18.63;16.80;;;7.30;94.30;;;;;;5017815;28;20365;-72
2023/03/01 12:46:28;;;;;;;19.55;17.65;;;7.30;94.10;;;;;;4998270;28;20324;-73
2023/03/01 12:48:56;;;;;;;19.98;17.88;;;7.30;95.30;;;;;;5026157;28;20483;-71
2023/03/01 12:51:32;;;;;;;20.30;18.10;;;7.40;94.60;;;;;;5015031;28;20895;-71